sensor_id;sensor_type;location;lat;lon;timestamp;temperature;humidity
45319;DHT22;31057;48.498;32.260;2023-12-14T00:01:48;1.00;99.90
45319;DHT22;31057;48.498;32.260;2023-12-14T00:03:50;1.00;99.90
45319;DHT22;31057;48.498;32.260;2023-12-14T00:05:52;1.00;99.90
45319;DHT22;31057;48.498;32.260;2023-12-14T00:07:54;0.90;99.90
45319;DHT22;31057;48.498;32.260;2023-12-14T00:09:56;1.00;99.90
45319;DHT22;31057;48.498;32.260;2023-12-14T00:11:58;1.00;99.90
45319;DHT22;31057;48.498;32.260;2023-12-14T00:14:00;1.00;99.90
45319;DHT22;31057;48.498;32.260;2023-12-14T00:16:02;1.00;99.90
45319;DHT22;31057;48.498;32.260;2023-12-14T00:18:04;1.00;99.90
45319;DHT22;31057;48.498;32.260;2023-12-14T00:20:08;1.00;99.90
45319;DHT22;31057;48.498;32.260;2023-12-14T00:22:10;1.00;99.90
45319;DHT22;31057;48.498;32.260;2023-12-14T00:24:12;1.10;99.90
45319;DHT22;31057;48.498;32.260;2023-12-14T00:26:14;1.00;99.90
45319;DHT22;31057;48.498;32.260;2023-12-14T00:28:16;1.00;99.90
45319;DHT22;31057;48.498;32.260;2023-12-14T00:30:18;1.00;99.90
45319;DHT22;31057;48.498;32.260;2023-12-14T00:32:20;1.00;99.90
45319;DHT22;31057;48.498;32.260;2023-12-14T00:34:22;0.90;99.90
45319;DHT22;31057;48.498;32.260;2023-12-14T00:36:24;0.90;99.90
45319;DHT22;31057;48.498;32.260;2023-12-14T00:38:26;1.00;99.90
45319;DHT22;31057;48.498;32.260;2023-12-14T00:40:28;1.00;99.90
45319;DHT22;31057;48.498;32.260;2023-12-14T00:42:30;0.90;99.90
45319;DHT22;31057;48.498;32.260;2023-12-14T00:44:32;0.90;99.90
45319;DHT22;31057;48.498;32.260;2023-12-14T00:46:35;0.90;99.90
45319;DHT22;31057;48.498;32.260;2023-12-14T00:48:37;0.90;99.90
45319;DHT22;31057;48.498;32.260;2023-12-14T00:50:38;0.90;99.90
45319;DHT22;31057;48.498;32.260;2023-12-14T00:52:40;0.90;99.90
45319;DHT22;31057;48.498;32.260;2023-12-14T00:54:42;0.90;99.90
45319;DHT22;31057;48.498;32.260;2023-12-14T00:56:44;0.80;99.90
45319;DHT22;31057;48.498;32.260;2023-12-14T00:58:46;0.80;99.90
45319;DHT22;31057;48.498;32.260;2023-12-14T01:00:48;0.80;99.90
45319;DHT22;31057;48.498;32.260;2023-12-14T01:02:50;0.80;99.90
45319;DHT22;31057;48.498;32.260;2023-12-14T01:04:52;0.80;99.90
45319;DHT22;31057;48.498;32.260;2023-12-14T01:06:54;0.80;99.90
45319;DHT22;31057;48.498;32.260;2023-12-14T01:08:56;0.80;99.90
45319;DHT22;31057;48.498;32.260;2023-12-14T01:10:58;0.70;99.90
45319;DHT22;31057;48.498;32.260;2023-12-14T01:13:00;0.70;99.90
45319;DHT22;31057;48.498;32.260;2023-12-14T01:15:02;0.70;99.90
45319;DHT22;31057;48.498;32.260;2023-12-14T01:17:04;0.80;99.90
45319;DHT22;31057;48.498;32.260;2023-12-14T01:19:06;0.70;99.90
45319;DHT22;31057;48.498;32.260;2023-12-14T01:21:09;0.70;99.90
45319;DHT22;31057;48.498;32.260;2023-12-14T01:23:11;0.70;99.90
45319;DHT22;31057;48.498;32.260;2023-12-14T01:25:13;0.70;99.90
45319;DHT22;31057;48.498;32.260;2023-12-14T01:27:15;0.70;99.90
45319;DHT22;31057;48.498;32.260;2023-12-14T01:29:17;0.70;99.90
45319;DHT22;31057;48.498;32.260;2023-12-14T01:31:19;0.70;99.90
45319;DHT22;31057;48.498;32.260;2023-12-14T01:33:24;0.80;99.90
45319;DHT22;31057;48.498;32.260;2023-12-14T01:35:26;0.70;99.90
45319;DHT22;31057;48.498;32.260;2023-12-14T01:37:31;0.70;99.90
45319;DHT22;31057;48.498;32.260;2023-12-14T01:39:33;0.70;99.90
45319;DHT22;31057;48.498;32.260;2023-12-14T01:41:35;0.70;99.90
45319;DHT22;31057;48.498;32.260;2023-12-14T01:43:37;0.70;99.90
45319;DHT22;31057;48.498;32.260;2023-12-14T01:45:39;0.70;99.90
45319;DHT22;31057;48.498;32.260;2023-12-14T01:47:42;0.80;99.90
45319;DHT22;31057;48.498;32.260;2023-12-14T01:49:44;0.70;99.90
45319;DHT22;31057;48.498;32.260;2023-12-14T01:51:46;0.70;99.90
45319;DHT22;31057;48.498;32.260;2023-12-14T01:53:48;0.60;99.90
45319;DHT22;31057;48.498;32.260;2023-12-14T01:55:50;0.70;99.90
45319;DHT22;31057;48.498;32.260;2023-12-14T01:57:52;0.60;99.90
45319;DHT22;31057;48.498;32.260;2023-12-14T01:59:54;0.60;99.90
45319;DHT22;31057;48.498;32.260;2023-12-14T02:01:56;0.60;99.90
45319;DHT22;31057;48.498;32.260;2023-12-14T02:03:59;0.60;99.90
45319;DHT22;31057;48.498;32.260;2023-12-14T02:06:01;0.60;99.90
45319;DHT22;31057;48.498;32.260;2023-12-14T02:08:03;0.60;99.90
45319;DHT22;31057;48.498;32.260;2023-12-14T02:10:06;0.70;99.90
45319;DHT22;31057;48.498;32.260;2023-12-14T02:12:08;0.60;99.90
45319;DHT22;31057;48.498;32.260;2023-12-14T02:14:11;0.60;99.90
45319;DHT22;31057;48.498;32.260;2023-12-14T02:16:13;0.70;99.90
45319;DHT22;31057;48.498;32.260;2023-12-14T02:18:15;0.70;99.90
45319;DHT22;31057;48.498;32.260;2023-12-14T02:20:17;0.60;99.90
45319;DHT22;31057;48.498;32.260;2023-12-14T02:22:19;0.70;99.90
45319;DHT22;31057;48.498;32.260;2023-12-14T02:24:21;0.70;99.90
45319;DHT22;31057;48.498;32.260;2023-12-14T02:26:23;0.70;99.90
45319;DHT22;31057;48.498;32.260;2023-12-14T02:28:25;0.70;99.90
45319;DHT22;31057;48.498;32.260;2023-12-14T02:30:27;0.60;99.90
45319;DHT22;31057;48.498;32.260;2023-12-14T02:32:29;0.70;99.90
45319;DHT22;31057;48.498;32.260;2023-12-14T02:34:31;0.70;99.90
45319;DHT22;31057;48.498;32.260;2023-12-14T02:36:33;0.70;99.90
45319;DHT22;31057;48.498;32.260;2023-12-14T02:38:35;0.60;99.90
45319;DHT22;31057;48.498;32.260;2023-12-14T02:40:37;0.60;99.90
45319;DHT22;31057;48.498;32.260;2023-12-14T02:42:39;0.60;99.90
45319;DHT22;31057;48.498;32.260;2023-12-14T02:44:41;0.60;99.90
45319;DHT22;31057;48.498;32.260;2023-12-14T02:46:42;0.60;99.90
45319;DHT22;31057;48.498;32.260;2023-12-14T02:48:44;0.60;99.90
45319;DHT22;31057;48.498;32.260;2023-12-14T02:50:46;0.60;99.90
45319;DHT22;31057;48.498;32.260;2023-12-14T02:52:48;0.50;99.90
45319;DHT22;31057;48.498;32.260;2023-12-14T02:54:50;0.60;99.90
45319;DHT22;31057;48.498;32.260;2023-12-14T02:56:52;0.50;99.90
45319;DHT22;31057;48.498;32.260;2023-12-14T02:58:54;0.60;99.90
45319;DHT22;31057;48.498;32.260;2023-12-14T03:00:56;0.50;99.90
45319;DHT22;31057;48.498;32.260;2023-12-14T03:02:58;0.60;99.90
45319;DHT22;31057;48.498;32.260;2023-12-14T03:05:00;0.60;99.90
45319;DHT22;31057;48.498;32.260;2023-12-14T03:07:02;0.50;99.90
45319;DHT22;31057;48.498;32.260;2023-12-14T03:09:04;0.50;99.90
45319;DHT22;31057;48.498;32.260;2023-12-14T03:11:06;0.50;99.90
45319;DHT22;31057;48.498;32.260;2023-12-14T03:13:08;0.50;99.90
45319;DHT22;31057;48.498;32.260;2023-12-14T03:15:10;0.50;99.90
45319;DHT22;31057;48.498;32.260;2023-12-14T03:17:12;0.50;99.90
45319;DHT22;31057;48.498;32.260;2023-12-14T03:19:15;0.60;99.90
45319;DHT22;31057;48.498;32.260;2023-12-14T03:21:18;0.60;99.90
45319;DHT22;31057;48.498;32.260;2023-12-14T03:23:20;0.60;99.90
45319;DHT22;31057;48.498;32.260;2023-12-14T03:25:22;0.60;99.90
45319;DHT22;31057;48.498;32.260;2023-12-14T03:27:24;0.60;99.90
45319;DHT22;31057;48.498;32.260;2023-12-14T03:29:27;0.50;99.90
45319;DHT22;31057;48.498;32.260;2023-12-14T03:31:29;0.60;99.90
45319;DHT22;31057;48.498;32.260;2023-12-14T03:33:31;0.70;99.90
45319;DHT22;31057;48.498;32.260;2023-12-14T03:35:33;0.60;99.90
45319;DHT22;31057;48.498;32.260;2023-12-14T03:37:35;0.60;99.90
45319;DHT22;31057;48.498;32.260;2023-12-14T03:39:37;0.60;99.90
45319;DHT22;31057;48.498;32.260;2023-12-14T03:41:39;0.60;99.90
45319;DHT22;31057;48.498;32.260;2023-12-14T03:43:41;0.60;99.90
45319;DHT22;31057;48.498;32.260;2023-12-14T03:45:43;0.60;99.90
45319;DHT22;31057;48.498;32.260;2023-12-14T03:47:45;0.60;99.90
45319;DHT22;31057;48.498;32.260;2023-12-14T03:49:47;0.60;99.90
45319;DHT22;31057;48.498;32.260;2023-12-14T03:51:51;0.70;99.90
45319;DHT22;31057;48.498;32.260;2023-12-14T03:53:53;0.70;99.90
45319;DHT22;31057;48.498;32.260;2023-12-14T03:55:55;0.70;99.90
45319;DHT22;31057;48.498;32.260;2023-12-14T03:57:57;0.70;99.90
45319;DHT22;31057;48.498;32.260;2023-12-14T03:59:59;0.70;99.90
45319;DHT22;31057;48.498;32.260;2023-12-14T04:02:01;0.70;99.90
45319;DHT22;31057;48.498;32.260;2023-12-14T04:04:03;0.70;99.90
45319;DHT22;31057;48.498;32.260;2023-12-14T04:06:05;0.80;99.90
45319;DHT22;31057;48.498;32.260;2023-12-14T04:08:07;0.80;99.90
45319;DHT22;31057;48.498;32.260;2023-12-14T04:10:10;0.80;99.90
45319;DHT22;31057;48.498;32.260;2023-12-14T04:12:12;0.70;99.90
45319;DHT22;31057;48.498;32.260;2023-12-14T04:14:14;0.80;99.90
45319;DHT22;31057;48.498;32.260;2023-12-14T04:16:19;0.80;99.90
45319;DHT22;31057;48.498;32.260;2023-12-14T04:18:26;0.70;99.90
45319;DHT22;31057;48.498;32.260;2023-12-14T04:20:28;0.70;99.90
45319;DHT22;31057;48.498;32.260;2023-12-14T04:22:30;0.80;99.90
45319;DHT22;31057;48.498;32.260;2023-12-14T04:24:32;0.80;99.90
45319;DHT22;31057;48.498;32.260;2023-12-14T04:26:34;0.80;99.90
45319;DHT22;31057;48.498;32.260;2023-12-14T04:28:36;0.80;99.90
45319;DHT22;31057;48.498;32.260;2023-12-14T04:30:38;0.80;99.90
45319;DHT22;31057;48.498;32.260;2023-12-14T04:32:40;0.80;99.90
45319;DHT22;31057;48.498;32.260;2023-12-14T04:34:42;0.70;99.90
45319;DHT22;31057;48.498;32.260;2023-12-14T04:36:48;0.70;99.90
45319;DHT22;31057;48.498;32.260;2023-12-14T04:38:50;0.80;99.90
45319;DHT22;31057;48.498;32.260;2023-12-14T04:40:52;0.80;99.90
45319;DHT22;31057;48.498;32.260;2023-12-14T04:42:54;0.80;99.90
45319;DHT22;31057;48.498;32.260;2023-12-14T04:44:56;0.80;99.90
45319;DHT22;31057;48.498;32.260;2023-12-14T04:46:58;0.80;99.90
45319;DHT22;31057;48.498;32.260;2023-12-14T04:49:00;0.80;99.90
45319;DHT22;31057;48.498;32.260;2023-12-14T04:51:03;0.80;99.90
45319;DHT22;31057;48.498;32.260;2023-12-14T04:53:05;0.90;99.90
45319;DHT22;31057;48.498;32.260;2023-12-14T04:55:07;0.90;99.90
45319;DHT22;31057;48.498;32.260;2023-12-14T04:57:10;0.90;99.90
45319;DHT22;31057;48.498;32.260;2023-12-14T04:59:12;0.80;99.90
45319;DHT22;31057;48.498;32.260;2023-12-14T05:01:14;0.90;99.90
45319;DHT22;31057;48.498;32.260;2023-12-14T05:03:16;0.90;99.90
45319;DHT22;31057;48.498;32.260;2023-12-14T05:05:18;0.90;99.90
45319;DHT22;31057;48.498;32.260;2023-12-14T05:07:20;0.90;99.90
45319;DHT22;31057;48.498;32.260;2023-12-14T05:09:22;0.90;99.90
45319;DHT22;31057;48.498;32.260;2023-12-14T05:11:24;0.90;99.90
45319;DHT22;31057;48.498;32.260;2023-12-14T05:13:26;0.80;99.90
45319;DHT22;31057;48.498;32.260;2023-12-14T05:15:28;0.90;99.90
45319;DHT22;31057;48.498;32.260;2023-12-14T05:17:29;0.90;99.90
45319;DHT22;31057;48.498;32.260;2023-12-14T05:19:34;0.90;99.90
45319;DHT22;31057;48.498;32.260;2023-12-14T05:21:38;1.00;99.90
45319;DHT22;31057;48.498;32.260;2023-12-14T05:23:40;1.00;99.90
45319;DHT22;31057;48.498;32.260;2023-12-14T05:25:42;1.00;99.90
45319;DHT22;31057;48.498;32.260;2023-12-14T05:27:44;1.00;99.90
45319;DHT22;31057;48.498;32.260;2023-12-14T05:29:46;1.00;99.90
45319;DHT22;31057;48.498;32.260;2023-12-14T05:31:48;1.00;99.90
45319;DHT22;31057;48.498;32.260;2023-12-14T05:33:50;1.00;99.90
45319;DHT22;31057;48.498;32.260;2023-12-14T05:35:52;1.00;99.90
45319;DHT22;31057;48.498;32.260;2023-12-14T05:37:54;1.00;99.90
45319;DHT22;31057;48.498;32.260;2023-12-14T05:39:57;1.10;99.90
45319;DHT22;31057;48.498;32.260;2023-12-14T05:41:59;1.00;99.90
45319;DHT22;31057;48.498;32.260;2023-12-14T05:44:02;1.10;99.90
45319;DHT22;31057;48.498;32.260;2023-12-14T05:46:04;1.10;99.90
45319;DHT22;31057;48.498;32.260;2023-12-14T05:48:06;1.10;99.90
45319;DHT22;31057;48.498;32.260;2023-12-14T05:50:09;1.10;99.90
45319;DHT22;31057;48.498;32.260;2023-12-14T05:52:12;1.20;99.90
45319;DHT22;31057;48.498;32.260;2023-12-14T05:54:14;1.20;99.90
45319;DHT22;31057;48.498;32.260;2023-12-14T05:56:17;1.20;99.90
45319;DHT22;31057;48.498;32.260;2023-12-14T05:58:19;1.30;99.90
45319;DHT22;31057;48.498;32.260;2023-12-14T06:00:21;1.30;99.90
45319;DHT22;31057;48.498;32.260;2023-12-14T06:02:23;1.20;99.90
45319;DHT22;31057;48.498;32.260;2023-12-14T06:04:27;1.30;99.90
45319;DHT22;31057;48.498;32.260;2023-12-14T06:06:29;1.30;99.90
45319;DHT22;31057;48.498;32.260;2023-12-14T06:08:31;1.40;99.90
45319;DHT22;31057;48.498;32.260;2023-12-14T06:10:32;1.40;99.90
45319;DHT22;31057;48.498;32.260;2023-12-14T06:12:34;1.30;99.90
45319;DHT22;31057;48.498;32.260;2023-12-14T06:14:37;1.30;99.90
45319;DHT22;31057;48.498;32.260;2023-12-14T06:16:39;1.40;99.90
45319;DHT22;31057;48.498;32.260;2023-12-14T06:18:41;1.40;99.90
45319;DHT22;31057;48.498;32.260;2023-12-14T06:20:43;1.40;99.90
45319;DHT22;31057;48.498;32.260;2023-12-14T06:22:45;1.40;99.90
45319;DHT22;31057;48.498;32.260;2023-12-14T06:24:47;1.40;99.90
45319;DHT22;31057;48.498;32.260;2023-12-14T06:26:49;1.40;99.90
45319;DHT22;31057;48.498;32.260;2023-12-14T06:28:51;1.50;99.90
45319;DHT22;31057;48.498;32.260;2023-12-14T06:30:53;1.50;99.90
45319;DHT22;31057;48.498;32.260;2023-12-14T06:32:55;1.50;99.90
45319;DHT22;31057;48.498;32.260;2023-12-14T06:34:57;1.60;99.90
45319;DHT22;31057;48.498;32.260;2023-12-14T06:36:59;1.50;99.90
45319;DHT22;31057;48.498;32.260;2023-12-14T06:39:02;1.60;99.90
45319;DHT22;31057;48.498;32.260;2023-12-14T06:41:05;1.60;99.90
45319;DHT22;31057;48.498;32.260;2023-12-14T06:43:07;1.70;99.90
45319;DHT22;31057;48.498;32.260;2023-12-14T06:45:09;1.70;99.90
45319;DHT22;31057;48.498;32.260;2023-12-14T06:47:12;1.70;99.90
45319;DHT22;31057;48.498;32.260;2023-12-14T06:49:15;1.70;99.90
45319;DHT22;31057;48.498;32.260;2023-12-14T06:51:18;1.80;99.90
45319;DHT22;31057;48.498;32.260;2023-12-14T06:53:19;1.70;99.90
45319;DHT22;31057;48.498;32.260;2023-12-14T06:55:21;1.80;99.90
45319;DHT22;31057;48.498;32.260;2023-12-14T06:57:23;1.80;99.90
45319;DHT22;31057;48.498;32.260;2023-12-14T06:59:28;1.80;99.90
45319;DHT22;31057;48.498;32.260;2023-12-14T07:01:30;1.90;99.90
45319;DHT22;31057;48.498;32.260;2023-12-14T07:03:32;1.90;99.90
45319;DHT22;31057;48.498;32.260;2023-12-14T07:05:34;1.90;99.90
45319;DHT22;31057;48.498;32.260;2023-12-14T07:07:36;1.90;99.90
45319;DHT22;31057;48.498;32.260;2023-12-14T07:09:38;1.90;99.90
45319;DHT22;31057;48.498;32.260;2023-12-14T07:11:41;1.90;99.90
45319;DHT22;31057;48.498;32.260;2023-12-14T07:13:43;1.90;99.90
45319;DHT22;31057;48.498;32.260;2023-12-14T07:15:44;2.00;99.90
45319;DHT22;31057;48.498;32.260;2023-12-14T07:17:46;1.90;99.90
45319;DHT22;31057;48.498;32.260;2023-12-14T07:19:51;2.00;99.90
45319;DHT22;31057;48.498;32.260;2023-12-14T07:21:54;2.00;99.90
45319;DHT22;31057;48.498;32.260;2023-12-14T07:23:57;2.00;99.90
45319;DHT22;31057;48.498;32.260;2023-12-14T07:25:59;2.10;99.90
45319;DHT22;31057;48.498;32.260;2023-12-14T07:28:04;2.10;99.90
45319;DHT22;31057;48.498;32.260;2023-12-14T07:30:07;2.10;99.90
45319;DHT22;31057;48.498;32.260;2023-12-14T07:32:11;2.10;99.90
45319;DHT22;31057;48.498;32.260;2023-12-14T07:34:14;2.20;99.90
45319;DHT22;31057;48.498;32.260;2023-12-14T07:36:19;2.80;99.90
45319;DHT22;31057;48.498;32.260;2023-12-14T07:38:21;3.20;99.90
45319;DHT22;31057;48.498;32.260;2023-12-14T07:40:23;1.50;99.90
45319;DHT22;31057;48.498;32.260;2023-12-14T07:42:25;1.50;99.90
45319;DHT22;31057;48.498;32.260;2023-12-14T07:44:27;2.30;99.90
45319;DHT22;31057;48.498;32.260;2023-12-14T07:46:32;1.60;99.90
45319;DHT22;31057;48.498;32.260;2023-12-14T07:48:34;3.60;99.90
45319;DHT22;31057;48.498;32.260;2023-12-14T07:50:36;3.70;99.90
45319;DHT22;31057;48.498;32.260;2023-12-14T07:52:38;3.20;99.90
45319;DHT22;31057;48.498;32.260;2023-12-14T07:54:40;3.10;99.90
45319;DHT22;31057;48.498;32.260;2023-12-14T07:56:42;3.80;99.90
45319;DHT22;31057;48.498;32.260;2023-12-14T07:58:44;3.00;99.90
45319;DHT22;31057;48.498;32.260;2023-12-14T08:00:46;3.70;99.90
45319;DHT22;31057;48.498;32.260;2023-12-14T08:02:48;2.40;99.90
45319;DHT22;31057;48.498;32.260;2023-12-14T08:04:50;2.60;99.90
45319;DHT22;31057;48.498;32.260;2023-12-14T08:06:52;3.50;99.90
45319;DHT22;31057;48.498;32.260;2023-12-14T08:08:55;3.40;99.90
45319;DHT22;31057;48.498;32.260;2023-12-14T08:10:59;2.40;99.90
45319;DHT22;31057;48.498;32.260;2023-12-14T08:13:01;2.60;99.90
45319;DHT22;31057;48.498;32.260;2023-12-14T08:15:03;3.40;99.90
45319;DHT22;31057;48.498;32.260;2023-12-14T08:17:05;2.90;99.90
45319;DHT22;31057;48.498;32.260;2023-12-14T08:19:07;3.70;99.90
45319;DHT22;31057;48.498;32.260;2023-12-14T08:21:09;3.30;99.90
45319;DHT22;31057;48.498;32.260;2023-12-14T08:23:14;4.00;99.90
45319;DHT22;31057;48.498;32.260;2023-12-14T08:25:16;3.90;99.90
45319;DHT22;31057;48.498;32.260;2023-12-14T08:27:22;3.50;99.90
45319;DHT22;31057;48.498;32.260;2023-12-14T08:29:24;4.00;99.90
45319;DHT22;31057;48.498;32.260;2023-12-14T08:31:25;3.20;99.90
45319;DHT22;31057;48.498;32.260;2023-12-14T08:33:28;3.00;99.90
45319;DHT22;31057;48.498;32.260;2023-12-14T08:35:30;3.50;99.90
45319;DHT22;31057;48.498;32.260;2023-12-14T08:37:32;3.00;99.90
45319;DHT22;31057;48.498;32.260;2023-12-14T08:39:34;3.20;99.90
45319;DHT22;31057;48.498;32.260;2023-12-14T08:41:36;4.40;99.90
45319;DHT22;31057;48.498;32.260;2023-12-14T08:43:38;3.70;99.90
45319;DHT22;31057;48.498;32.260;2023-12-14T08:45:40;4.40;99.90
45319;DHT22;31057;48.498;32.260;2023-12-14T08:47:42;3.80;99.90
45319;DHT22;31057;48.498;32.260;2023-12-14T08:49:44;4.30;99.90
45319;DHT22;31057;48.498;32.260;2023-12-14T08:51:46;4.50;99.90
45319;DHT22;31057;48.498;32.260;2023-12-14T08:53:48;4.10;99.90
45319;DHT22;31057;48.498;32.260;2023-12-14T08:55:50;3.60;99.90
45319;DHT22;31057;48.498;32.260;2023-12-14T08:57:52;3.40;99.90
45319;DHT22;31057;48.498;32.260;2023-12-14T08:59:54;4.50;99.90
45319;DHT22;31057;48.498;32.260;2023-12-14T09:01:56;3.90;99.90
45319;DHT22;31057;48.498;32.260;2023-12-14T09:03:58;4.80;99.90
45319;DHT22;31057;48.498;32.260;2023-12-14T09:06:00;4.80;99.90
45319;DHT22;31057;48.498;32.260;2023-12-14T09:08:04;3.70;99.90
45319;DHT22;31057;48.498;32.260;2023-12-14T09:10:07;3.70;99.90
45319;DHT22;31057;48.498;32.260;2023-12-14T09:12:09;4.90;99.90
45319;DHT22;31057;48.498;32.260;2023-12-14T09:14:11;3.80;99.90
45319;DHT22;31057;48.498;32.260;2023-12-14T09:16:13;4.20;99.90
45319;DHT22;31057;48.498;32.260;2023-12-14T09:18:15;4.20;99.90
45319;DHT22;31057;48.498;32.260;2023-12-14T09:20:17;5.10;99.90
45319;DHT22;31057;48.498;32.260;2023-12-14T09:22:19;4.20;99.90
45319;DHT22;31057;48.498;32.260;2023-12-14T09:24:21;5.00;99.90
45319;DHT22;31057;48.498;32.260;2023-12-14T09:26:23;4.70;99.90
45319;DHT22;31057;48.498;32.260;2023-12-14T09:28:25;4.70;99.90
45319;DHT22;31057;48.498;32.260;2023-12-14T09:30:28;5.20;99.90
45319;DHT22;31057;48.498;32.260;2023-12-14T09:32:30;5.30;99.90
45319;DHT22;31057;48.498;32.260;2023-12-14T09:34:32;4.10;99.90
45319;DHT22;31057;48.498;32.260;2023-12-14T09:36:34;4.50;99.90
45319;DHT22;31057;48.498;32.260;2023-12-14T09:38:36;5.40;99.90
45319;DHT22;31057;48.498;32.260;2023-12-14T09:40:38;4.90;99.90
45319;DHT22;31057;48.498;32.260;2023-12-14T09:42:41;4.60;99.90
45319;DHT22;31057;48.498;32.260;2023-12-14T09:44:43;4.90;99.90
45319;DHT22;31057;48.498;32.260;2023-12-14T09:46:46;5.40;99.90
45319;DHT22;31057;48.498;32.260;2023-12-14T09:48:51;5.00;99.90
45319;DHT22;31057;48.498;32.260;2023-12-14T09:50:55;4.60;99.90
45319;DHT22;31057;48.498;32.260;2023-12-14T09:52:57;4.50;99.90
45319;DHT22;31057;48.498;32.260;2023-12-14T09:54:59;5.70;99.90
45319;DHT22;31057;48.498;32.260;2023-12-14T09:57:01;5.00;99.90
45319;DHT22;31057;48.498;32.260;2023-12-14T09:59:04;5.20;99.90
45319;DHT22;31057;48.498;32.260;2023-12-14T10:01:26;5.40;99.90
45319;DHT22;31057;48.498;32.260;2023-12-14T10:03:29;5.60;99.90
45319;DHT22;31057;48.498;32.260;2023-12-14T10:05:31;6.00;99.90
45319;DHT22;31057;48.498;32.260;2023-12-14T10:07:33;5.50;99.90
45319;DHT22;31057;48.498;32.260;2023-12-14T10:09:37;5.20;99.90
45319;DHT22;31057;48.498;32.260;2023-12-14T10:11:39;6.20;99.90
45319;DHT22;31057;48.498;32.260;2023-12-14T10:13:42;5.40;99.90
45319;DHT22;31057;48.498;32.260;2023-12-14T10:15:44;5.50;99.90
45319;DHT22;31057;48.498;32.260;2023-12-14T10:17:46;6.00;99.90
45319;DHT22;31057;48.498;32.260;2023-12-14T10:19:55;6.30;99.90
45319;DHT22;31057;48.498;32.260;2023-12-14T10:21:57;5.40;99.90
45319;DHT22;31057;48.498;32.260;2023-12-14T10:23:59;5.40;99.90
45319;DHT22;31057;48.498;32.260;2023-12-14T10:26:01;6.30;99.90
45319;DHT22;31057;48.498;32.260;2023-12-14T10:28:03;6.50;99.90
45319;DHT22;31057;48.498;32.260;2023-12-14T10:30:07;5.80;99.90
45319;DHT22;31057;48.498;32.260;2023-12-14T10:32:10;6.50;99.90
45319;DHT22;31057;48.498;32.260;2023-12-14T10:34:13;6.70;99.90
45319;DHT22;31057;48.498;32.260;2023-12-14T10:36:18;6.40;99.90
45319;DHT22;31057;48.498;32.260;2023-12-14T10:38:24;6.60;99.90
45319;DHT22;31057;48.498;32.260;2023-12-14T10:40:28;6.40;99.90
45319;DHT22;31057;48.498;32.260;2023-12-14T10:42:30;6.10;99.90
45319;DHT22;31057;48.498;32.260;2023-12-14T10:44:36;6.40;99.90
45319;DHT22;31057;48.498;32.260;2023-12-14T10:46:59;6.20;99.90
45319;DHT22;31057;48.498;32.260;2023-12-14T10:49:01;5.90;99.90
45319;DHT22;31057;48.498;32.260;2023-12-14T10:51:04;5.90;99.90
45319;DHT22;31057;48.498;32.260;2023-12-14T10:53:07;6.80;99.90
45319;DHT22;31057;48.498;32.260;2023-12-14T10:55:18;6.00;99.90
45319;DHT22;31057;48.498;32.260;2023-12-14T10:57:21;6.80;99.90
45319;DHT22;31057;48.498;32.260;2023-12-14T10:59:24;6.90;99.90
45319;DHT22;31057;48.498;32.260;2023-12-14T11:01:26;6.90;99.90
45319;DHT22;31057;48.498;32.260;2023-12-14T11:03:36;6.10;99.90
45319;DHT22;31057;48.498;32.260;2023-12-14T11:05:38;6.70;99.90
45319;DHT22;31057;48.498;32.260;2023-12-14T11:07:54;6.90;99.90
45319;DHT22;31057;48.498;32.260;2023-12-14T11:09:57;7.00;99.90
45319;DHT22;31057;48.498;32.260;2023-12-14T11:12:01;6.30;99.90
45319;DHT22;31057;48.498;32.260;2023-12-14T11:14:08;6.40;99.90
45319;DHT22;31057;48.498;32.260;2023-12-14T11:16:13;6.30;99.90
45319;DHT22;31057;48.498;32.260;2023-12-14T11:20:26;6.70;99.90
45319;DHT22;31057;48.498;32.260;2023-12-14T11:22:29;6.30;99.90
45319;DHT22;31057;48.498;32.260;2023-12-14T11:24:31;6.80;99.90
45319;DHT22;31057;48.498;32.260;2023-12-14T11:26:33;7.10;99.90
45319;DHT22;31057;48.498;32.260;2023-12-14T11:28:40;7.20;99.90
45319;DHT22;31057;48.498;32.260;2023-12-14T11:30:46;6.80;99.90
45319;DHT22;31057;48.498;32.260;2023-12-14T11:32:56;7.00;99.90
45319;DHT22;31057;48.498;32.260;2023-12-14T11:34:59;7.20;99.90
45319;DHT22;31057;48.498;32.260;2023-12-14T11:37:01;6.70;99.90
45319;DHT22;31057;48.498;32.260;2023-12-14T11:39:03;7.00;99.90
45319;DHT22;31057;48.498;32.260;2023-12-14T11:41:07;7.20;99.90
45319;DHT22;31057;48.498;32.260;2023-12-14T11:43:09;6.80;99.90
45319;DHT22;31057;48.498;32.260;2023-12-14T11:45:11;7.10;99.90
45319;DHT22;31057;48.498;32.260;2023-12-14T11:47:13;6.90;99.90
45319;DHT22;31057;48.498;32.260;2023-12-14T11:49:15;7.20;99.90
45319;DHT22;31057;48.498;32.260;2023-12-14T11:51:17;6.80;99.90
45319;DHT22;31057;48.498;32.260;2023-12-14T11:53:19;7.30;99.90
45319;DHT22;31057;48.498;32.260;2023-12-14T11:55:22;6.80;99.90
45319;DHT22;31057;48.498;32.260;2023-12-14T11:57:28;7.40;99.90
45319;DHT22;31057;48.498;32.260;2023-12-14T11:59:31;7.20;99.90
45319;DHT22;31057;48.498;32.260;2023-12-14T12:01:34;7.20;99.90
45319;DHT22;31057;48.498;32.260;2023-12-14T12:03:37;7.40;99.90
45319;DHT22;31057;48.498;32.260;2023-12-14T12:05:41;7.10;99.90
45319;DHT22;31057;48.498;32.260;2023-12-14T12:07:44;7.40;99.90
45319;DHT22;31057;48.498;32.260;2023-12-14T12:09:47;7.30;99.90
45319;DHT22;31057;48.498;32.260;2023-12-14T12:11:49;7.10;99.90
45319;DHT22;31057;48.498;32.260;2023-12-14T12:13:51;7.20;99.90
45319;DHT22;31057;48.498;32.260;2023-12-14T12:15:54;7.20;99.90
45319;DHT22;31057;48.498;32.260;2023-12-14T12:17:56;7.10;99.90
45319;DHT22;31057;48.498;32.260;2023-12-14T12:19:58;7.30;99.90
45319;DHT22;31057;48.498;32.260;2023-12-14T12:22:00;7.10;99.90
45319;DHT22;31057;48.498;32.260;2023-12-14T12:24:02;7.30;99.90
45319;DHT22;31057;48.498;32.260;2023-12-14T12:26:12;7.20;99.90
45319;DHT22;31057;48.498;32.260;2023-12-14T12:28:14;7.60;99.90
45319;DHT22;31057;48.498;32.260;2023-12-14T12:30:16;7.40;99.90
45319;DHT22;31057;48.498;32.260;2023-12-14T12:32:18;7.50;99.90
45319;DHT22;31057;48.498;32.260;2023-12-14T12:34:20;7.50;99.90
45319;DHT22;31057;48.498;32.260;2023-12-14T12:36:22;7.20;99.90
45319;DHT22;31057;48.498;32.260;2023-12-14T12:38:24;7.50;99.90
45319;DHT22;31057;48.498;32.260;2023-12-14T12:40:26;7.50;99.90
45319;DHT22;31057;48.498;32.260;2023-12-14T12:42:28;7.50;99.90
45319;DHT22;31057;48.498;32.260;2023-12-14T12:44:31;7.50;99.90
45319;DHT22;31057;48.498;32.260;2023-12-14T12:46:34;7.50;99.90
45319;DHT22;31057;48.498;32.260;2023-12-14T12:48:36;7.70;99.90
45319;DHT22;31057;48.498;32.260;2023-12-14T12:50:39;7.70;99.90
45319;DHT22;31057;48.498;32.260;2023-12-14T12:52:41;7.60;99.90
45319;DHT22;31057;48.498;32.260;2023-12-14T12:54:44;7.40;99.90
45319;DHT22;31057;48.498;32.260;2023-12-14T12:56:48;7.70;99.90